Grassy Butte, ND (58634)

11:56 PM CST on February 06, 2016 (GMT -0600)
Grassy Butte, ND | | Change Station
CLOSE
Current Station
Personal Weather Station
Location: Grassy Butte, ND
Elevation: 2579 ft
Nearby Weather Stations
Active Advisory: High Wind Warning

Elev 2579 ft 47.50 °N, 103.29 °W | Updated 59 seconds ago

Clear
Clear
33.1 °F
Feels Like 27 °F
N
6.8
Wind Variable Wind from West
Gusts 15.0 mph

Today
High -- | Low -- °F
--% Chance of Precip.
Yesterday
High -- | Low -- °F
Precip. -- in
Pressure 29.84 in
Visibility 10.0 miles
Clouds Clear
Windchill 27 °F
Dew Point 26 °F
Humidity 73%
Rainfall 0.00 in
Snow Depth Not available.
8:13 AM 6:02 PM
Waning Crescent, 2% visible
METAR KS25 070535Z AUTO 27016G24KT 10SM CLR 01/M03 A2984 RMK AO2
Pressure 29.84 in
Visibility 10.0 miles
Clouds Clear
Windchill 27 °F
Dew Point 26 °F
Humidity 73%
Rainfall 0.00 in
Snow Depth Not available.
8:13 AM 6:02 PM
Waning Crescent, 2% visible
METAR KS25 070535Z AUTO 27016G24KT 10SM CLR 01/M03 A2984 RMK AO2

10-Day Weather Forecast

Almanac

Astronomy

Feb. 06, 2016 Rise Set
Actual Time
Civil Twilight
Nautical Twilight
Astronomical Twilight
Moon
Length of Visible Light
Length of Day
Tomorrow will be .
, % of the Moon is Illuminated

Today's Extremes

State Highs State Lows

Community

WunderPhotos

Upload Photos

1,891,167 photos uploaded!

WunderBlog® & News

Nearby

Air Quality

  Air Quality AQ Index Pollutant
Not available.

Snow Depth

Station Depth Elevation

Earthquake Activity

City Distance Mag. Time & Date
Minimum magnitude displayed is 2.5.

Coastal Water Temperatures

Place Temperature

Stations

Nearby Weather Stations

Station Location Temp. Windchill Dew Point Humidity Wind Precip. Elev Updated Type
                   

Watches & Warnings

High Wind Warning
Issued: 8:49 PM MST Feb. 6, 2016 – National Weather Service

... High Wind Warning remains in effect until 9 PM CST /8 PM MST/
Sunday...

* timing... through early Sunday evening... with the strongest winds
expected during the day Sunday.

* Winds... northwest winds gusting up to 65 mph.

* Impacts... travel may be hazardous over western North Dakota.

Precautionary/preparedness actions...

A High Wind Warning means a hazardous high wind event is expected
or occurring. Sustained wind speeds of at least 40 mph or gusts
of 58 mph or more can lead to property damage.